createdAt,value
2022-11-13T00:02:39.682Z,53.38
2022-11-13T00:05:25.658Z,45.08
2022-11-13T00:08:11.705Z,46.22
2022-11-13T00:11:06.066Z,52.05
2022-11-13T00:13:51.864Z,49.53
2022-11-13T00:16:37.661Z,45.53
2022-11-13T00:19:23.653Z,52.67
2022-11-13T00:22:09.685Z,43.63
2022-11-13T00:24:55.537Z,50.20
2022-11-13T00:27:41.538Z,47.22
2022-11-13T00:30:27.468Z,47.35
2022-11-13T00:33:18.898Z,50.40
2022-11-13T00:36:18.765Z,51.88
2022-11-13T00:39:04.448Z,46.30
2022-11-13T00:41:50.236Z,49.25
2022-11-13T00:44:36.286Z,47.75
2022-11-13T00:47:22.375Z,52.15
2022-11-13T00:50:08.445Z,49.80
2022-11-13T00:52:54.151Z,44.08
2022-11-13T00:55:40.023Z,47.88
2022-11-13T00:58:26.776Z,45.78
2022-11-13T01:01:16.595Z,44.47
2022-11-13T01:04:02.835Z,45.75
2022-11-13T01:06:48.795Z,41.03
2022-11-13T01:09:34.907Z,45.20
2022-11-13T01:12:20.875Z,44.53
2022-11-13T01:15:07.308Z,46.10
2022-11-13T01:17:55.044Z,44.28
2022-11-13T01:20:41.003Z,43.72
2022-11-13T01:23:26.558Z,46.85
2022-11-13T01:26:27.692Z,47.60
2022-11-13T01:29:13.337Z,46.05
2022-11-13T01:32:02.071Z,46.22
2022-11-13T01:34:47.902Z,38.53
2022-11-13T01:37:33.838Z,44.00
2022-11-13T01:40:19.868Z,39.92
2022-11-13T01:43:29.208Z,41.90
2022-11-13T01:46:52.315Z,39.90
2022-11-13T01:49:40.921Z,49.08
2022-11-13T01:52:31.384Z,41.60
2022-11-13T01:55:19.148Z,41.63
2022-11-13T01:58:07.941Z,42.60
2022-11-13T02:00:53.921Z,38.17
2022-11-13T02:03:39.899Z,45.75
2022-11-13T02:06:30.867Z,42.30
2022-11-13T02:09:20.386Z,47.22
2022-11-13T02:12:08.333Z,41.10
2022-11-13T02:14:55.406Z,44.90
2022-11-13T02:17:45.869Z,40.07
2022-11-13T02:21:00.272Z,42.78
2022-11-13T02:23:52.231Z,51.45
2022-11-13T02:26:38.537Z,38.95
2022-11-13T02:29:24.323Z,41.63
2022-11-13T02:32:10.176Z,48.75
2022-11-13T02:34:56.094Z,40.85
2022-11-13T02:37:42.420Z,41.42
2022-11-13T02:40:29.398Z,49.75
2022-11-13T02:43:15.058Z,34.35
2022-11-13T02:46:01.220Z,44.50
2022-11-13T02:48:47.201Z,36.08
2022-11-13T02:51:33.177Z,41.25
2022-11-13T02:54:18.869Z,44.67
2022-11-13T02:57:04.702Z,41.08
2022-11-13T02:59:50.600Z,48.33
2022-11-13T03:02:36.517Z,42.60
2022-11-13T03:05:22.929Z,36.80
2022-11-13T03:08:08.787Z,46.15
2022-11-13T03:10:55.258Z,34.53
2022-11-13T03:13:41.233Z,49.20
2022-11-13T03:16:27.290Z,37.58
2022-11-13T03:19:13.188Z,38.33
2022-11-13T03:21:59.113Z,40.65
2022-11-13T03:24:44.882Z,41.83
2022-11-13T03:27:32.056Z,38.60
2022-11-13T03:30:18.033Z,37.17
2022-11-13T03:33:03.722Z,41.85
2022-11-13T03:35:49.718Z,39.60
2022-11-13T03:38:36.126Z,36.53
2022-11-13T03:41:23.139Z,39.55
2022-11-13T03:44:08.775Z,36.13
2022-11-13T03:46:54.765Z,38.75
2022-11-13T03:49:40.727Z,35.38
2022-11-13T03:52:26.657Z,40.38
2022-11-13T03:55:12.667Z,32.92
2022-11-13T03:57:59.024Z,35.08
2022-11-13T04:00:46.249Z,36.42
2022-11-13T04:03:32.003Z,37.47
2022-11-13T04:06:17.904Z,35.17
2022-11-13T04:09:04.221Z,33.95
2022-11-13T04:11:49.977Z,34.60
2022-11-13T04:14:35.822Z,40.28
2022-11-13T04:17:21.842Z,35.70
2022-11-13T04:20:08.607Z,43.80
2022-11-13T04:22:55.937Z,41.77
2022-11-13T04:25:41.604Z,48.88
2022-11-13T04:28:27.971Z,39.20
2022-11-13T04:31:13.761Z,38.08
2022-11-13T04:33:59.709Z,40.80
2022-11-13T04:36:45.485Z,35.08
2022-11-13T04:39:31.529Z,38.42
2022-11-13T04:42:36.209Z,46.92
2022-11-13T04:45:23.898Z,40.83
2022-11-13T04:48:09.875Z,47.40
2022-11-13T04:50:55.921Z,38.15
2022-11-13T04:53:41.886Z,37.65
2022-11-13T04:56:27.998Z,36.13
2022-11-13T04:59:14.133Z,46.15
2022-11-13T05:02:00.085Z,40.75
2022-11-13T05:04:46.068Z,41.17
2022-11-13T05:07:32.094Z,42.38
2022-11-13T05:10:18.050Z,41.25
2022-11-13T05:13:04.220Z,37.67
2022-11-13T05:15:50.133Z,41.88
2022-11-13T05:18:38.168Z,38.20
2022-11-13T05:21:24.365Z,36.80
2022-11-13T05:24:11.575Z,54.25
2022-11-13T05:26:57.469Z,45.08
2022-11-13T05:29:43.583Z,37.03
2022-11-13T05:32:29.059Z,41.47
2022-11-13T05:35:15.329Z,40.05
2022-11-13T05:38:02.151Z,43.60
2022-11-13T05:40:47.882Z,41.10
2022-11-13T05:43:35.019Z,43.25
2022-11-13T05:46:23.696Z,29.80
2022-11-13T05:49:10.172Z,41.63
2022-11-13T05:51:55.931Z,36.95
2022-11-13T05:54:41.900Z,39.17
2022-11-13T05:57:27.923Z,39.33
2022-11-13T06:00:14.809Z,35.90
2022-11-13T06:03:00.535Z,41.03
2022-11-13T06:05:46.345Z,42.40
2022-11-13T06:08:32.817Z,34.53
2022-11-13T06:11:21.850Z,38.20
2022-11-13T06:14:07.576Z,35.88
2022-11-13T06:16:53.627Z,37.45
2022-11-13T06:19:39.495Z,36.75
2022-11-13T06:22:25.352Z,33.75
2022-11-13T06:25:11.258Z,38.47
2022-11-13T06:27:57.033Z,42.88
2022-11-13T06:30:43.015Z,44.00
2022-11-13T06:33:29.069Z,35.45
2022-11-13T06:36:19.900Z,41.80
2022-11-13T06:39:07.496Z,54.47
2022-11-13T06:41:53.702Z,29.48
2022-11-13T06:44:39.622Z,30.80
2022-11-13T06:47:25.607Z,28.23
2022-11-13T06:50:11.561Z,32.00
2022-11-13T06:52:57.448Z,38.58
2022-11-13T06:55:45.011Z,32.25
2022-11-13T06:58:31.253Z,28.23
2022-11-13T07:01:20.414Z,30.02
2022-11-13T07:04:07.111Z,28.75
2022-11-13T07:06:53.004Z,35.58
2022-11-13T07:09:38.819Z,23.60
2022-11-13T07:12:24.706Z,34.92
2022-11-13T07:15:11.894Z,30.65
2022-11-13T07:18:00.661Z,33.00
2022-11-13T07:20:46.530Z,40.15
2022-11-13T07:23:33.383Z,25.55
2022-11-13T07:26:19.669Z,23.65
2022-11-13T07:29:05.244Z,31.58
2022-11-13T07:31:51.298Z,27.52
2022-11-13T07:34:36.821Z,67.57
2022-11-13T07:37:22.746Z,30.88
2022-11-13T07:40:09.706Z,30.90
2022-11-13T07:42:59.920Z,21.43
2022-11-13T07:45:45.592Z,26.67
2022-11-13T07:48:32.209Z,30.90
2022-11-13T07:51:18.374Z,22.60
2022-11-13T07:54:04.369Z,25.80
2022-11-13T07:56:50.397Z,25.42
2022-11-13T07:59:36.209Z,18.92
2022-11-13T08:02:26.253Z,29.77
2022-11-13T08:05:12.620Z,18.50
2022-11-13T08:07:58.634Z,27.67
2022-11-13T08:10:44.492Z,21.33
2022-11-13T08:13:30.851Z,33.75
2022-11-13T08:16:16.421Z,23.02
2022-11-13T08:19:03.329Z,21.33
2022-11-13T08:21:49.353Z,32.75
2022-11-13T08:24:35.186Z,23.70
2022-11-13T08:27:22.573Z,30.30
2022-11-13T08:30:09.074Z,21.98
2022-11-13T08:32:55.245Z,21.90
2022-11-13T08:35:41.196Z,19.85
2022-11-13T08:38:27.557Z,22.50
2022-11-13T08:41:13.398Z,21.88
2022-11-13T08:43:59.500Z,28.15
2022-11-13T08:46:45.422Z,23.42
2022-11-13T08:49:31.413Z,18.38
2022-11-13T08:52:17.843Z,21.20
2022-11-13T08:55:03.792Z,26.65
2022-11-13T08:57:50.339Z,24.00
2022-11-13T09:00:36.345Z,20.63
2022-11-13T09:03:22.263Z,30.65
2022-11-13T09:06:09.215Z,21.70
2022-11-13T09:08:55.010Z,22.02
2022-11-13T09:11:40.652Z,24.60
2022-11-13T09:14:28.080Z,25.20
2022-11-13T09:17:13.837Z,35.67
2022-11-13T09:20:03.967Z,25.10
2022-11-13T09:22:57.297Z,21.27
2022-11-13T09:25:43.325Z,25.23
2022-11-13T09:28:29.871Z,28.77
2022-11-13T09:31:16.213Z,36.55
2022-11-13T09:34:02.173Z,27.65
2022-11-13T09:36:48.394Z,25.70
2022-11-13T09:39:34.273Z,18.02
2022-11-13T09:42:24.651Z,25.50
2022-11-13T09:45:15.549Z,18.58
2022-11-13T09:48:16.252Z,19.52
2022-11-13T09:51:12.958Z,27.65
2022-11-13T09:54:02.603Z,33.10
2022-11-13T09:57:00.497Z,17.17
2022-11-13T10:00:01.870Z,22.08
2022-11-13T10:03:12.186Z,17.52
2022-11-13T10:05:58.053Z,19.77
2022-11-13T10:09:00.347Z,20.98
2022-11-13T10:12:03.935Z,18.65
2022-11-13T10:14:53.687Z,16.25
2022-11-13T10:17:41.881Z,26.98
2022-11-13T10:20:33.362Z,17.58
2022-11-13T10:23:28.571Z,24.95
2022-11-13T10:26:18.205Z,21.45
2022-11-13T10:29:16.290Z,23.90
2022-11-13T10:32:24.334Z,19.08
2022-11-13T10:35:23.668Z,17.27
2022-11-13T10:38:15.407Z,20.48
2022-11-13T10:41:13.985Z,17.33
2022-11-13T10:44:07.717Z,20.15
2022-11-13T10:47:15.318Z,23.40
2022-11-13T10:50:21.937Z,18.73
2022-11-13T10:53:17.445Z,20.60
2022-11-13T10:56:34.537Z,17.08
2022-11-13T10:59:20.452Z,16.13
2022-11-13T11:02:26.591Z,18.30
2022-11-13T11:05:19.847Z,17.23
2022-11-13T11:08:10.141Z,14.95
2022-11-13T11:11:27.054Z,15.60
2022-11-13T11:14:19.816Z,14.65
2022-11-13T11:17:06.147Z,13.95
2022-11-13T11:20:10.549Z,17.25
2022-11-13T11:23:02.286Z,13.88
2022-11-13T11:26:02.085Z,12.70
2022-11-13T11:29:15.173Z,13.98
2022-11-13T11:32:19.949Z,14.15
2022-11-13T11:35:20.910Z,20.08
2022-11-13T11:38:25.487Z,13.18
2022-11-13T11:41:17.611Z,18.13
2022-11-13T11:44:15.641Z,16.05
2022-11-13T11:47:01.472Z,14.10
2022-11-13T11:49:47.420Z,11.15
2022-11-13T11:52:48.091Z,12.68
2022-11-13T11:55:54.782Z,16.23
2022-11-13T11:58:58.049Z,18.45
2022-11-13T12:01:58.503Z,15.05
2022-11-13T12:05:18.589Z,19.02
2022-11-13T12:08:24.879Z,15.07
2022-11-13T12:11:10.905Z,18.00
2022-11-13T12:14:30.651Z,16.50
2022-11-13T12:17:31.486Z,18.30
2022-11-13T12:20:38.791Z,15.93
2022-11-13T12:23:38.770Z,16.85
2022-11-13T12:26:47.700Z,25.30
2022-11-13T12:29:38.667Z,25.38
2022-11-13T12:32:39.342Z,17.60
2022-11-13T12:35:26.784Z,19.08
2022-11-13T12:38:33.788Z,26.90
2022-11-13T12:41:33.065Z,20.35
2022-11-13T12:44:27.536Z,19.95
2022-11-13T12:47:14.084Z,22.75
2022-11-13T12:50:31.687Z,29.80
2022-11-13T12:53:27.007Z,28.98
2022-11-13T12:56:29.474Z,23.52
2022-11-13T12:59:33.797Z,27.38
2022-11-13T13:02:29.725Z,27.55
2022-11-13T13:05:21.974Z,21.58
2022-11-13T13:08:28.049Z,25.10
2022-11-13T13:11:38.200Z,24.92
2022-11-13T13:14:37.828Z,21.42
2022-11-13T13:17:24.540Z,22.00
2022-11-13T13:20:13.591Z,22.25
2022-11-13T13:23:02.154Z,22.17
2022-11-13T13:25:49.603Z,26.15
2022-11-13T13:28:40.373Z,29.73
2022-11-13T13:32:11.569Z,35.30
2022-11-13T13:35:17.169Z,24.38
2022-11-13T13:38:18.481Z,24.25
2022-11-13T13:41:42.376Z,25.15
2022-11-13T13:45:03.327Z,24.95
2022-11-13T13:47:51.731Z,18.95
2022-11-13T13:50:45.124Z,28.25
2022-11-13T13:53:34.678Z,20.17
2022-11-13T13:56:21.364Z,17.80
2022-11-13T13:59:25.039Z,18.20
2022-11-13T14:02:18.366Z,16.10
2022-11-13T14:05:37.961Z,19.77
2022-11-13T14:11:26.712Z,19.77
2022-11-13T14:14:21.487Z,18.60
2022-11-13T14:17:10.973Z,26.17
2022-11-13T14:20:00.976Z,18.73
2022-11-13T14:22:56.332Z,23.63
2022-11-13T14:25:43.735Z,22.00
2022-11-13T14:28:32.414Z,23.75
2022-11-13T14:31:18.770Z,26.55
2022-11-13T14:34:11.348Z,28.85
2022-11-13T14:37:13.883Z,24.13
2022-11-13T14:40:04.949Z,24.05
2022-11-13T14:42:55.037Z,27.35
2022-11-13T14:45:40.865Z,30.42
2022-11-13T14:48:29.792Z,30.10
2022-11-13T14:51:28.100Z,36.58
2022-11-13T14:54:46.799Z,28.77
2022-11-13T14:57:48.267Z,32.15
2022-11-13T15:00:36.915Z,36.80
2022-11-13T15:03:23.595Z,39.70
2022-11-13T15:06:14.369Z,36.90
2022-11-13T15:09:00.668Z,44.22
2022-11-13T15:11:46.831Z,38.90
2022-11-13T15:14:33.496Z,40.05
2022-11-13T15:17:20.949Z,39.17
2022-11-13T15:20:09.765Z,42.83
2022-11-13T15:22:58.490Z,46.63
2022-11-13T15:25:44.279Z,45.92
2022-11-13T15:28:29.944Z,46.17
2022-11-13T15:31:19.286Z,48.67
2022-11-13T15:34:05.575Z,37.90
2022-11-13T15:36:51.549Z,43.72
2022-11-13T15:39:37.200Z,47.47
2022-11-13T15:42:29.980Z,46.85
2022-11-13T15:45:16.775Z,46.33
2022-11-13T15:48:02.354Z,51.58
2022-11-13T15:50:48.371Z,53.33
2022-11-13T15:53:34.219Z,63.22
2022-11-13T15:56:20.368Z,52.63
2022-11-13T15:59:06.181Z,45.75
2022-11-13T16:01:56.957Z,56.00
2022-11-13T16:04:55.931Z,58.45
2022-11-13T16:07:42.754Z,52.60
2022-11-13T16:10:28.512Z,53.13
2022-11-13T16:13:14.427Z,50.88
2022-11-13T16:16:01.039Z,46.05
2022-11-13T16:18:47.044Z,54.20
2022-11-13T16:21:33.032Z,51.75
2022-11-13T16:24:22.715Z,50.50
2022-11-13T16:27:20.229Z,57.63
2022-11-13T16:30:09.781Z,52.03
2022-11-13T16:32:55.847Z,56.70
2022-11-13T16:35:41.895Z,55.42
2022-11-13T16:38:27.904Z,52.97
2022-11-13T16:41:16.562Z,56.17
2022-11-13T16:44:02.499Z,56.00
2022-11-13T16:46:49.665Z,54.70
2022-11-13T16:49:35.372Z,59.70
2022-11-13T16:52:21.313Z,61.00
2022-11-13T16:55:07.681Z,53.33
2022-11-13T16:57:53.890Z,67.82
2022-11-13T17:00:40.439Z,53.78
2022-11-13T17:03:26.317Z,54.10
2022-11-13T17:06:26.780Z,61.42
2022-11-13T17:09:14.021Z,64.50
2022-11-13T17:12:00.050Z,57.92
2022-11-13T17:14:46.964Z,63.65
2022-11-13T17:17:33.088Z,63.50
2022-11-13T17:20:19.460Z,61.60
2022-11-13T17:23:05.054Z,71.90
2022-11-13T17:25:51.209Z,81.88
2022-11-13T17:28:36.978Z,73.57
2022-11-13T17:31:22.832Z,88.75
2022-11-13T17:34:08.872Z,72.53
2022-11-13T17:36:54.850Z,64.30
2022-11-13T17:39:40.877Z,78.85
2022-11-13T17:42:28.740Z,81.28
2022-11-13T17:45:14.431Z,75.75
2022-11-13T17:48:00.440Z,74.97
2022-11-13T17:50:57.077Z,66.25
2022-11-13T17:53:43.111Z,76.20
2022-11-13T17:56:28.654Z,65.60
2022-11-13T17:59:14.621Z,60.40
2022-11-13T18:02:00.786Z,66.15
2022-11-13T18:04:46.769Z,65.95
2022-11-13T18:07:32.836Z,55.80
2022-11-13T18:10:18.663Z,58.75
2022-11-13T18:13:04.468Z,62.92
2022-11-13T18:15:50.599Z,58.75
2022-11-13T18:18:36.334Z,64.72
2022-11-13T18:21:25.858Z,59.85
2022-11-13T18:24:17.192Z,58.60
2022-11-13T18:27:05.883Z,61.83
2022-11-13T18:29:51.954Z,58.90
2022-11-13T18:32:37.656Z,54.72
2022-11-13T18:35:23.642Z,55.75
2022-11-13T18:38:09.505Z,52.58
2022-11-13T18:41:02.620Z,53.47
2022-11-13T18:43:50.892Z,54.83
2022-11-13T18:46:36.929Z,49.60
2022-11-13T18:49:23.176Z,52.22
2022-11-13T18:52:08.832Z,54.95
2022-11-13T18:54:54.898Z,54.92
2022-11-13T18:57:40.858Z,51.20
2022-11-13T19:00:26.776Z,54.00
2022-11-13T19:03:12.669Z,61.05
2022-11-13T19:05:58.525Z,72.95
2022-11-13T19:08:45.196Z,65.60
2022-11-13T19:11:31.045Z,61.17
2022-11-13T19:14:18.146Z,69.60
2022-11-13T19:17:03.761Z,72.95
2022-11-13T19:19:49.640Z,71.95
2022-11-13T19:22:35.617Z,66.93
2022-11-13T19:25:21.538Z,64.93
2022-11-13T19:28:07.573Z,69.70
2022-11-13T19:30:56.432Z,69.03
2022-11-13T19:33:42.811Z,63.35
2022-11-13T19:36:30.556Z,69.72
2022-11-13T19:39:16.793Z,66.70
2022-11-13T19:42:03.088Z,67.45
2022-11-13T19:44:48.809Z,71.63
2022-11-13T19:47:34.655Z,67.30
2022-11-13T19:50:20.912Z,68.03
2022-11-13T19:53:06.689Z,63.97
2022-11-13T19:55:55.789Z,65.72
2022-11-13T19:58:44.255Z,65.38
2022-11-13T20:01:31.859Z,63.13
2022-11-13T20:07:04.178Z,62.58
2022-11-13T20:09:49.804Z,57.72
2022-11-13T20:12:35.768Z,59.75
2022-11-13T20:15:21.717Z,55.83
2022-11-13T20:18:07.589Z,60.75
2022-11-13T20:20:54.839Z,62.63
2022-11-13T20:23:41.363Z,53.13
2022-11-13T20:26:27.500Z,57.25
2022-11-13T20:29:13.312Z,61.00
2022-11-13T20:32:00.443Z,60.22
2022-11-13T20:34:46.271Z,50.80
2022-11-13T20:37:32.683Z,55.63
2022-11-13T20:40:18.707Z,60.90
2022-11-13T20:43:04.739Z,57.25
2022-11-13T20:45:50.761Z,54.95
2022-11-13T20:48:36.849Z,61.53
2022-11-13T20:51:25.285Z,58.42
2022-11-13T20:54:11.031Z,65.38
2022-11-13T20:56:56.936Z,50.92
2022-11-13T20:59:42.832Z,51.30
2022-11-13T21:02:28.836Z,55.45
2022-11-13T21:05:15.354Z,54.28
2022-11-13T21:08:00.889Z,55.03
2022-11-13T21:10:46.911Z,48.60
2022-11-13T21:13:33.252Z,51.17
2022-11-13T21:16:19.611Z,54.20
2022-11-13T21:19:05.671Z,58.67
2022-11-13T21:21:51.751Z,51.28
2022-11-13T21:24:38.013Z,52.28
2022-11-13T21:27:23.709Z,59.97
2022-11-13T21:30:10.118Z,54.05
2022-11-13T21:32:59.316Z,47.13
2022-11-13T21:35:45.560Z,46.00
2022-11-13T21:38:31.682Z,66.05
2022-11-13T21:41:24.449Z,53.55
2022-11-13T21:44:10.833Z,69.30
2022-11-13T21:46:56.965Z,55.10
2022-11-13T21:49:42.904Z,73.20
2022-11-13T21:52:29.678Z,57.92
2022-11-13T21:55:16.220Z,62.88
2022-11-13T21:58:02.110Z,58.55
2022-11-13T22:00:48.042Z,73.18
2022-11-13T22:03:34.345Z,57.67
2022-11-13T22:06:24.814Z,53.92
2022-11-13T22:09:25.263Z,51.33
2022-11-13T22:12:11.383Z,63.00
2022-11-13T22:14:57.028Z,51.60
2022-11-13T22:17:43.178Z,50.08
2022-11-13T22:20:29.059Z,46.15
2022-11-13T22:23:15.456Z,45.75
2022-11-13T22:26:01.856Z,53.50
2022-11-13T22:28:48.212Z,52.78
2022-11-13T22:31:35.384Z,48.22
2022-11-13T22:34:21.479Z,46.90
2022-11-13T22:37:07.218Z,48.85
2022-11-13T22:39:53.059Z,57.65
2022-11-13T22:42:39.156Z,49.30
2022-11-13T22:45:24.749Z,46.42
2022-11-13T22:48:11.427Z,47.35
2022-11-13T22:51:02.853Z,54.67
2022-11-13T22:53:57.251Z,56.78
2022-11-13T22:56:43.403Z,46.60
2022-11-13T22:59:29.068Z,51.33
2022-11-13T23:02:15.192Z,44.20
2022-11-13T23:05:01.088Z,46.83
2022-11-13T23:07:47.124Z,55.75
2022-11-13T23:10:33.119Z,52.13
2022-11-13T23:13:19.158Z,47.47
2022-11-13T23:16:05.330Z,48.70
2022-11-13T23:18:52.017Z,42.70
2022-11-13T23:21:37.834Z,51.38
2022-11-13T23:24:23.958Z,44.40
2022-11-13T23:27:09.715Z,48.05
2022-11-13T23:29:55.575Z,41.83
2022-11-13T23:32:41.488Z,43.22
2022-11-13T23:35:27.720Z,46.40
2022-11-13T23:38:13.780Z,57.10
2022-11-13T23:41:01.016Z,50.30
2022-11-13T23:44:07.644Z,42.97
2022-11-13T23:46:52.343Z,41.85
2022-11-13T23:49:38.245Z,56.42
2022-11-13T23:52:24.090Z,44.10
2022-11-13T23:55:10.560Z,57.20
2022-11-13T23:58:00.577Z,65.88
